createdAt,value
2023-10-13T00:00:31.243Z,16.42
2023-10-13T00:02:40.992Z,16.41
2023-10-13T00:04:47.693Z,16.44
2023-10-13T00:06:52.874Z,16.38
2023-10-13T00:08:58.103Z,16.31
2023-10-13T00:11:04.373Z,16.36
2023-10-13T00:13:17.474Z,16.34
2023-10-13T00:15:29.334Z,16.31
2023-10-13T00:17:34.355Z,16.35
2023-10-13T00:19:48.310Z,16.32
2023-10-13T00:21:53.645Z,16.29
2023-10-13T00:23:58.540Z,16.28
2023-10-13T00:26:04.991Z,16.29
2023-10-13T00:28:10.648Z,16.33
2023-10-13T00:30:23.987Z,16.32
2023-10-13T00:32:28.928Z,16.28
2023-10-13T00:34:34.518Z,16.30
2023-10-13T00:36:50.217Z,16.34
2023-10-13T00:38:57.499Z,16.30
2023-10-13T00:41:05.441Z,16.30
2023-10-13T00:43:22.984Z,16.27
2023-10-13T00:45:29.917Z,16.33
2023-10-13T00:47:49.204Z,16.32
2023-10-13T00:49:54.962Z,16.32
2023-10-13T00:52:00.257Z,16.34
2023-10-13T00:54:13.987Z,16.35
2023-10-13T00:56:20.769Z,16.32
2023-10-13T00:58:28.927Z,16.34
2023-10-13T01:00:31.411Z,16.29
2023-10-13T01:02:42.842Z,16.31
2023-10-13T01:04:48.099Z,16.38
2023-10-13T01:06:53.660Z,16.36
2023-10-13T01:09:12.452Z,16.32
2023-10-13T01:11:19.481Z,16.30
2023-10-13T01:13:23.391Z,16.32
2023-10-13T01:15:32.101Z,16.31
2023-10-13T01:17:35.356Z,16.30
2023-10-13T01:19:46.785Z,16.29
2023-10-13T01:21:49.552Z,16.32
2023-10-13T01:24:00.432Z,16.32
2023-10-13T01:26:06.671Z,16.30
2023-10-13T01:28:17.100Z,16.35
2023-10-13T01:30:24.095Z,16.30
2023-10-13T01:32:29.514Z,16.29
2023-10-13T01:34:34.990Z,16.30
2023-10-13T01:36:44.803Z,16.30
2023-10-13T01:38:48.360Z,16.31
2023-10-13T01:40:58.422Z,16.32
2023-10-13T01:43:00.928Z,16.29
2023-10-13T01:45:09.281Z,16.31
2023-10-13T01:47:14.048Z,16.26
2023-10-13T01:49:24.018Z,16.32
2023-10-13T01:51:29.957Z,16.28
2023-10-13T01:53:35.215Z,16.29
2023-10-13T01:55:41.128Z,16.27
2023-10-13T01:57:51.656Z,16.27
2023-10-13T01:59:54.007Z,16.27
2023-10-13T02:02:02.047Z,16.22
2023-10-13T02:04:05.630Z,16.17
2023-10-13T02:06:18.759Z,16.18
2023-10-13T02:08:25.050Z,16.17
2023-10-13T02:10:31.777Z,16.16
2023-10-13T02:12:38.745Z,16.12
2023-10-13T02:14:46.994Z,16.14
2023-10-13T02:16:51.834Z,16.16
2023-10-13T02:18:59.115Z,16.13
2023-10-13T02:21:06.173Z,16.12
2023-10-13T02:23:12.514Z,16.12
2023-10-13T02:25:18.712Z,16.10
2023-10-13T02:27:25.166Z,16.08
2023-10-13T02:29:27.584Z,16.09
2023-10-13T02:31:35.138Z,16.13
2023-10-13T02:33:48.822Z,16.13
2023-10-13T02:35:57.669Z,16.10
2023-10-13T02:38:00.458Z,16.07
2023-10-13T02:40:06.314Z,16.06
2023-10-13T02:42:08.994Z,16.04
2023-10-13T02:44:21.744Z,16.02
2023-10-13T02:46:25.185Z,16.01
2023-10-13T02:48:44.259Z,16.09
2023-10-13T02:51:03.452Z,16.05
2023-10-13T02:53:13.604Z,16.05
2023-10-13T02:55:26.646Z,16.02
2023-10-13T02:57:35.953Z,16.00
2023-10-13T02:59:42.548Z,15.99
2023-10-13T03:01:48.035Z,16.01
2023-10-13T03:03:55.757Z,15.98
2023-10-13T03:06:04.672Z,15.98
2023-10-13T03:08:07.878Z,15.98
2023-10-13T03:10:16.903Z,16.00
2023-10-13T03:12:19.398Z,15.96
2023-10-13T03:14:32.431Z,15.94
2023-10-13T03:16:36.305Z,15.93
2023-10-13T03:18:52.638Z,15.92
2023-10-13T03:21:00.832Z,15.96
2023-10-13T03:23:10.983Z,15.93
2023-10-13T03:25:19.340Z,15.96
2023-10-13T03:27:40.152Z,15.91
2023-10-13T03:29:47.815Z,15.81
2023-10-13T03:32:08.374Z,15.85
2023-10-13T03:34:13.981Z,15.81
2023-10-13T03:36:47.068Z,15.77
2023-10-13T03:38:59.272Z,15.77
2023-10-13T03:41:20.219Z,15.78
2023-10-13T03:43:25.778Z,15.78
2023-10-13T03:45:37.875Z,15.77
2023-10-13T03:47:47.313Z,15.85
2023-10-13T03:49:56.747Z,15.80
2023-10-13T03:52:07.305Z,15.79
2023-10-13T03:54:16.936Z,15.81
2023-10-13T03:56:30.949Z,15.86
2023-10-13T03:58:36.645Z,15.86
2023-10-13T04:00:44.305Z,15.85
2023-10-13T04:03:09.720Z,15.89
2023-10-13T04:05:35.286Z,15.90
2023-10-13T04:08:06.429Z,15.94
2023-10-13T04:10:41.080Z,16.08
2023-10-13T04:12:58.485Z,16.08
2023-10-13T04:15:22.724Z,16.06
2023-10-13T04:17:28.782Z,16.07
2023-10-13T04:19:53.005Z,16.14
2023-10-13T04:22:15.774Z,16.17
2023-10-13T04:24:35.645Z,16.17
2023-10-13T04:26:43.965Z,16.21
2023-10-13T04:28:55.041Z,16.24
2023-10-13T04:31:08.327Z,16.27
2023-10-13T04:33:37.451Z,16.29
2023-10-13T04:35:49.014Z,16.36
2023-10-13T04:37:59.787Z,16.41
2023-10-13T04:40:11.780Z,16.48
2023-10-13T04:42:37.647Z,16.52
2023-10-13T04:44:49.798Z,16.55
2023-10-13T04:47:09.179Z,16.56
2023-10-13T04:49:28.689Z,16.60
2023-10-13T04:51:51.476Z,16.66
2023-10-13T04:54:12.555Z,16.67
2023-10-13T04:56:32.530Z,16.70
2023-10-13T04:58:50.127Z,16.72
2023-10-13T05:01:13.431Z,16.70
2023-10-13T05:03:32.676Z,16.68
2023-10-13T05:06:10.345Z,16.61
2023-10-13T05:08:27.877Z,16.56
2023-10-13T05:10:54.276Z,16.48
2023-10-13T05:13:14.187Z,16.42
2023-10-13T05:15:34.867Z,16.35
2023-10-13T05:17:52.416Z,16.26
2023-10-13T05:20:16.503Z,16.20
2023-10-13T05:22:33.901Z,16.16
2023-10-13T05:24:51.434Z,16.08
2023-10-13T05:27:11.002Z,16.16
2023-10-13T05:29:31.119Z,16.12
2023-10-13T05:31:48.786Z,16.12
2023-10-13T05:34:06.348Z,16.12
2023-10-13T05:36:29.711Z,16.10
2023-10-13T05:38:47.365Z,16.06
2023-10-13T05:41:12.644Z,16.05
2023-10-13T05:43:31.304Z,16.07
2023-10-13T05:46:06.112Z,16.06
2023-10-13T05:48:16.958Z,16.08
2023-10-13T05:50:51.401Z,16.11
2023-10-13T05:53:08.831Z,16.10
2023-10-13T05:55:26.154Z,16.15
2023-10-13T05:57:46.658Z,16.16
2023-10-13T06:00:04.251Z,16.15
2023-10-13T06:02:24.227Z,16.15
2023-10-13T06:04:48.446Z,16.16
2023-10-13T06:07:08.748Z,16.16
2023-10-13T06:09:26.229Z,16.20
2023-10-13T06:11:46.911Z,16.22
2023-10-13T06:14:04.802Z,16.33
2023-10-13T06:16:23.026Z,16.37
2023-10-13T06:18:42.887Z,16.40
2023-10-13T06:21:00.223Z,16.45
2023-10-13T06:23:17.535Z,16.46
2023-10-13T06:25:34.962Z,16.49
2023-10-13T06:27:52.399Z,16.54
2023-10-13T06:29:59.796Z,16.58
2023-10-13T06:32:14.854Z,16.59
2023-10-13T06:34:29.566Z,16.67
2023-10-13T06:36:34.863Z,16.69
2023-10-13T06:38:42.845Z,16.73
2023-10-13T06:40:51.456Z,16.76
2023-10-13T06:43:20.520Z,16.75
2023-10-13T06:45:29.620Z,16.76
2023-10-13T06:47:44.141Z,16.77
2023-10-13T06:49:52.794Z,16.81
2023-10-13T06:52:01.877Z,16.85
2023-10-13T06:54:14.113Z,16.88
2023-10-13T06:56:23.912Z,16.92
2023-10-13T06:58:30.728Z,16.93
2023-10-13T07:00:36.595Z,16.98
2023-10-13T07:02:45.399Z,17.02
2023-10-13T07:04:58.697Z,17.03
2023-10-13T07:07:07.469Z,17.06
2023-10-13T07:09:25.920Z,17.06
2023-10-13T07:11:44.042Z,17.12
2023-10-13T07:13:53.876Z,17.15
2023-10-13T07:16:14.590Z,17.15
2023-10-13T07:18:24.637Z,17.14
2023-10-13T07:20:37.707Z,17.13
2023-10-13T07:22:56.788Z,17.18
2023-10-13T07:25:07.732Z,17.15
2023-10-13T07:27:11.041Z,17.18
2023-10-13T07:29:16.820Z,17.27
2023-10-13T07:31:22.408Z,17.33
2023-10-13T07:33:27.538Z,17.33
2023-10-13T07:35:37.344Z,17.42
2023-10-13T07:37:42.706Z,17.55
2023-10-13T07:39:51.523Z,17.57
2023-10-13T07:41:55.696Z,17.64
2023-10-13T07:44:01.300Z,17.67
2023-10-13T07:46:11.040Z,17.72
2023-10-13T07:48:23.013Z,17.79
2023-10-13T07:50:28.739Z,17.81
2023-10-13T07:52:55.748Z,17.87
2023-10-13T07:55:13.362Z,17.83
2023-10-13T07:57:28.466Z,17.92
2023-10-13T07:59:33.506Z,17.89
2023-10-13T08:01:44.553Z,17.88
2023-10-13T08:04:08.722Z,17.90
2023-10-13T08:06:27.687Z,17.88
2023-10-13T08:08:39.465Z,17.90
2023-10-13T08:10:47.331Z,17.99
2023-10-13T08:12:53.593Z,17.99
2023-10-13T08:15:13.256Z,18.04
2023-10-13T08:17:18.273Z,18.02
2023-10-13T08:19:28.570Z,18.10
2023-10-13T08:21:33.354Z,18.03
2023-10-13T08:23:56.038Z,18.01
2023-10-13T08:26:13.440Z,18.05
2023-10-13T08:28:34.844Z,18.01
2023-10-13T08:30:55.812Z,17.97
2023-10-13T08:33:00.744Z,17.99
2023-10-13T08:35:35.744Z,18.06
2023-10-13T08:38:08.571Z,18.05
2023-10-13T08:40:39.091Z,18.09
2023-10-13T08:43:14.079Z,18.11
2023-10-13T08:45:46.731Z,18.16
2023-10-13T08:48:08.780Z,18.18
2023-10-13T08:50:35.635Z,18.18
2023-10-13T08:52:50.618Z,18.20
2023-10-13T08:55:13.557Z,18.22
2023-10-13T08:57:31.517Z,18.22
2023-10-13T08:59:54.485Z,18.29
2023-10-13T09:02:01.418Z,18.27
2023-10-13T09:04:19.633Z,18.32
2023-10-13T09:06:27.762Z,18.33
2023-10-13T09:08:36.934Z,18.32
2023-10-13T09:11:07.325Z,18.38
2023-10-13T09:13:20.379Z,18.35
2023-10-13T09:15:54.798Z,18.37
2023-10-13T09:18:14.411Z,18.34
2023-10-13T09:20:44.429Z,18.37
2023-10-13T09:22:55.776Z,18.35
2023-10-13T09:25:04.149Z,18.45
2023-10-13T09:27:06.531Z,18.48
2023-10-13T09:29:22.868Z,18.46
2023-10-13T09:31:33.896Z,18.55
2023-10-13T09:33:51.404Z,18.55
2023-10-13T09:35:55.563Z,18.58
2023-10-13T09:38:03.925Z,18.61
2023-10-13T09:40:26.406Z,18.70
2023-10-13T09:42:35.484Z,18.74
2023-10-13T09:44:42.086Z,18.74
2023-10-13T09:46:48.292Z,18.74
2023-10-13T09:49:05.625Z,18.78
2023-10-13T09:51:21.183Z,18.78
2023-10-13T09:53:25.365Z,18.72
2023-10-13T09:55:35.048Z,18.75
2023-10-13T09:57:46.585Z,18.92
2023-10-13T10:00:07.275Z,18.97
2023-10-13T10:02:20.324Z,19.03
2023-10-13T10:04:26.102Z,19.11
2023-10-13T10:06:42.779Z,19.15
2023-10-13T10:08:58.320Z,19.32
2023-10-13T10:11:35.621Z,19.39
2023-10-13T10:13:59.040Z,19.49
2023-10-13T10:16:15.680Z,19.55
2023-10-13T10:18:27.027Z,19.58
2023-10-13T10:20:41.543Z,19.58
2023-10-13T10:23:02.600Z,19.61
2023-10-13T10:25:25.727Z,19.63
2023-10-13T10:27:35.717Z,19.60
2023-10-13T10:29:42.917Z,19.56
2023-10-13T10:31:56.220Z,19.50
2023-10-13T10:34:01.273Z,19.44
2023-10-13T10:36:06.757Z,19.47
2023-10-13T10:38:17.222Z,19.48
2023-10-13T10:40:37.014Z,19.50
2023-10-13T10:42:42.336Z,19.53
2023-10-13T10:44:49.453Z,19.56
2023-10-13T10:47:02.634Z,19.63
2023-10-13T10:49:12.243Z,19.64
2023-10-13T10:51:22.883Z,19.64
2023-10-13T10:53:35.370Z,19.62
2023-10-13T10:55:43.214Z,19.66
2023-10-13T10:57:50.377Z,19.64
2023-10-13T11:00:12.363Z,19.74
2023-10-13T11:02:28.629Z,19.79
2023-10-13T11:04:42.595Z,19.89
2023-10-13T11:06:56.148Z,19.95
2023-10-13T11:09:19.773Z,20.04
2023-10-13T11:11:44.679Z,20.09
2023-10-13T11:14:15.416Z,20.14
2023-10-13T11:16:26.574Z,20.29
2023-10-13T11:18:43.970Z,20.35
2023-10-13T11:20:55.805Z,20.37
2023-10-13T11:23:01.454Z,20.36
2023-10-13T11:25:12.578Z,20.31
2023-10-13T11:27:41.007Z,20.33
2023-10-13T11:29:53.803Z,20.25
2023-10-13T11:32:05.530Z,20.29
2023-10-13T11:34:23.354Z,20.37
2023-10-13T11:36:34.395Z,20.44
2023-10-13T11:38:44.854Z,20.44
2023-10-13T11:41:06.316Z,20.45
2023-10-13T11:43:15.610Z,20.45
2023-10-13T11:45:31.820Z,20.45
2023-10-13T11:47:49.729Z,20.46
2023-10-13T11:50:00.319Z,20.42
2023-10-13T11:52:20.273Z,20.48
2023-10-13T11:54:28.821Z,20.42
2023-10-13T11:56:33.955Z,20.47
2023-10-13T11:58:43.657Z,20.39
2023-10-13T12:01:10.096Z,20.44
2023-10-13T12:03:28.561Z,20.52
2023-10-13T12:05:51.297Z,20.58
2023-10-13T12:08:07.691Z,20.57
2023-10-13T12:10:30.042Z,20.63
2023-10-13T12:13:21.417Z,20.55
2023-10-13T12:15:58.318Z,20.54
2023-10-13T12:18:08.387Z,20.55
2023-10-13T12:23:01.318Z,20.53
2023-10-13T12:25:20.095Z,20.52
2023-10-13T12:27:36.665Z,20.48
2023-10-13T12:29:47.673Z,20.43
2023-10-13T12:32:07.147Z,20.48
2023-10-13T12:34:21.169Z,20.50
2023-10-13T12:36:43.724Z,20.42
2023-10-13T12:39:02.583Z,20.34
2023-10-13T12:41:34.057Z,20.19
2023-10-13T12:44:08.151Z,20.18
2023-10-13T12:46:25.678Z,20.20
2023-10-13T12:48:46.337Z,20.20
2023-10-13T12:51:09.036Z,20.17
2023-10-13T12:53:17.058Z,20.13
2023-10-13T12:55:26.495Z,20.03
2023-10-13T12:57:35.400Z,20.02
2023-10-13T12:59:40.392Z,19.96
2023-10-13T13:01:47.997Z,19.95
2023-10-13T13:03:57.131Z,19.98
2023-10-13T13:06:08.706Z,20.01
2023-10-13T13:08:23.937Z,19.98
2023-10-13T13:10:39.224Z,19.90
2023-10-13T13:12:45.621Z,19.89
2023-10-13T13:14:56.690Z,19.94
2023-10-13T13:17:06.373Z,19.93
2023-10-13T13:19:15.753Z,19.91
2023-10-13T13:21:23.128Z,20.07
2023-10-13T13:23:32.674Z,20.02
2023-10-13T13:25:44.068Z,20.09
2023-10-13T13:27:49.524Z,20.00
2023-10-13T13:29:57.711Z,19.97
2023-10-13T13:32:07.644Z,19.93
2023-10-13T13:34:14.105Z,19.89
2023-10-13T13:36:23.768Z,19.90
2023-10-13T13:38:33.431Z,19.91
2023-10-13T13:40:50.650Z,19.91
2023-10-13T13:42:58.801Z,19.88
2023-10-13T13:45:04.132Z,19.79
2023-10-13T13:47:13.465Z,19.62
2023-10-13T13:49:30.548Z,19.44
2023-10-13T13:51:39.401Z,19.11
2023-10-13T13:53:49.751Z,18.84
2023-10-13T13:56:00.420Z,18.62
2023-10-13T13:58:10.503Z,18.39
2023-10-13T14:00:19.894Z,18.33
2023-10-13T14:02:25.130Z,18.29
2023-10-13T14:04:32.954Z,18.18
2023-10-13T14:06:40.547Z,18.10
2023-10-13T14:08:45.991Z,18.06
2023-10-13T14:11:03.362Z,18.00
2023-10-13T14:13:14.863Z,17.99
2023-10-13T14:15:25.918Z,17.89
2023-10-13T14:17:31.454Z,17.93
2023-10-13T14:19:42.290Z,17.86
2023-10-13T14:21:44.973Z,17.85
2023-10-13T14:23:50.621Z,17.84
2023-10-13T14:25:57.004Z,17.84
2023-10-13T14:28:02.704Z,17.87
2023-10-13T14:30:20.722Z,17.86
2023-10-13T14:32:29.362Z,17.82
2023-10-13T14:34:37.062Z,17.85
2023-10-13T14:36:42.554Z,17.83
2023-10-13T14:38:50.708Z,17.79
2023-10-13T14:41:01.205Z,17.80
2023-10-13T14:43:06.479Z,17.80
2023-10-13T14:45:18.032Z,17.85
2023-10-13T14:47:26.325Z,17.84
2023-10-13T14:49:32.042Z,17.80
2023-10-13T14:51:44.274Z,17.81
2023-10-13T14:53:53.398Z,17.76
2023-10-13T14:56:06.589Z,17.73
2023-10-13T14:58:17.455Z,17.75
2023-10-13T15:00:33.054Z,17.77
2023-10-13T15:02:43.030Z,17.73
2023-10-13T15:04:49.766Z,17.71
2023-10-13T15:06:52.418Z,17.71
2023-10-13T15:09:05.409Z,17.73
2023-10-13T15:11:19.661Z,17.74
2023-10-13T15:13:24.738Z,17.73
2023-10-13T15:15:33.549Z,17.72
2023-10-13T15:17:40.888Z,17.73
2023-10-13T15:19:47.253Z,17.69
2023-10-13T15:21:55.631Z,17.71
2023-10-13T15:24:04.979Z,17.67
2023-10-13T15:26:11.034Z,17.71
2023-10-13T15:28:19.905Z,17.67
2023-10-13T15:30:24.248Z,17.63
2023-10-13T15:32:47.011Z,17.65
2023-10-13T15:34:57.280Z,17.60
2023-10-13T15:37:28.078Z,17.64
2023-10-13T15:39:37.908Z,17.64
2023-10-13T15:41:42.861Z,17.65
2023-10-13T15:43:51.468Z,17.66
2023-10-13T15:46:08.955Z,17.67
2023-10-13T15:48:27.078Z,17.72
2023-10-13T15:50:32.379Z,17.73
2023-10-13T15:52:37.525Z,17.74
2023-10-13T15:54:42.591Z,17.78
2023-10-13T15:56:48.012Z,17.76
2023-10-13T15:58:53.621Z,17.82
2023-10-13T16:00:59.281Z,17.87
2023-10-13T16:03:13.019Z,17.88
2023-10-13T16:05:24.112Z,17.86
2023-10-13T16:07:31.294Z,17.82
2023-10-13T16:09:37.370Z,17.84
2023-10-13T16:11:42.645Z,17.83
2023-10-13T16:13:48.155Z,17.82
2023-10-13T16:15:53.849Z,17.81
2023-10-13T16:18:05.066Z,17.81
2023-10-13T16:20:19.969Z,17.82
2023-10-13T16:22:27.854Z,17.81
2023-10-13T16:24:36.240Z,17.83
2023-10-13T16:26:57.525Z,17.77
2023-10-13T16:29:02.563Z,17.77
2023-10-13T16:31:09.204Z,17.80
2023-10-13T16:33:14.897Z,17.78
2023-10-13T16:37:58.803Z,17.77
2023-10-13T16:40:12.407Z,17.80
2023-10-13T16:42:17.492Z,17.88
2023-10-13T16:44:23.011Z,17.93
2023-10-13T16:46:28.164Z,17.94
2023-10-13T16:48:33.428Z,17.90
2023-10-13T16:50:38.853Z,17.89
2023-10-13T16:52:50.199Z,17.80
2023-10-13T16:54:52.778Z,17.73
2023-10-13T16:57:01.627Z,17.67
2023-10-13T16:59:08.697Z,17.66
2023-10-13T17:01:14.234Z,17.61
2023-10-13T17:03:26.522Z,17.57
2023-10-13T17:05:34.080Z,17.52
2023-10-13T17:07:44.122Z,17.50
2023-10-13T17:09:49.085Z,17.45
2023-10-13T17:11:53.994Z,17.47
2023-10-13T17:14:00.239Z,17.49
2023-10-13T17:16:13.344Z,17.42
2023-10-13T17:18:19.358Z,17.43
2023-10-13T17:20:24.519Z,17.43
2023-10-13T17:22:26.844Z,17.44
2023-10-13T17:24:33.106Z,17.42
2023-10-13T17:26:40.931Z,17.33
2023-10-13T17:28:46.421Z,17.34
2023-10-13T17:30:52.222Z,17.38
2023-10-13T17:33:00.626Z,17.37
2023-10-13T17:35:07.446Z,17.33
2023-10-13T17:37:13.142Z,17.34
2023-10-13T17:39:19.167Z,17.33
2023-10-13T17:41:24.702Z,17.31
2023-10-13T17:43:32.365Z,17.31
2023-10-13T17:45:39.179Z,17.33
2023-10-13T17:47:47.566Z,17.28
2023-10-13T17:49:52.707Z,17.30
2023-10-13T17:51:58.107Z,17.28
2023-10-13T17:54:03.280Z,17.24
2023-10-13T17:56:07.290Z,17.31
2023-10-13T17:58:12.338Z,17.29
2023-10-13T18:00:24.573Z,17.29
2023-10-13T18:02:30.410Z,17.34
2023-10-13T18:04:33.048Z,17.37
2023-10-13T18:06:38.573Z,17.35
2023-10-13T18:08:45.214Z,17.41
2023-10-13T18:10:56.761Z,17.44
2023-10-13T18:13:02.167Z,17.44
2023-10-13T18:15:10.494Z,17.49
2023-10-13T18:17:18.100Z,17.53
2023-10-13T18:19:28.868Z,17.52
2023-10-13T18:21:36.147Z,17.57
2023-10-13T18:23:42.099Z,17.54
2023-10-13T18:25:47.357Z,17.55
2023-10-13T18:27:52.617Z,17.58
2023-10-13T18:30:00.402Z,17.58
2023-10-13T18:32:05.959Z,17.59
2023-10-13T18:34:37.265Z,17.57
2023-10-13T18:36:56.200Z,17.53
2023-10-13T18:39:03.433Z,17.51
2023-10-13T18:41:08.900Z,17.64
2023-10-13T18:43:24.778Z,17.64
2023-10-13T18:45:31.234Z,17.67
2023-10-13T18:47:36.754Z,17.65
2023-10-13T18:49:47.840Z,17.64
2023-10-13T18:51:53.108Z,17.61
2023-10-13T18:54:03.318Z,17.64
2023-10-13T18:56:10.753Z,17.65
2023-10-13T18:58:15.869Z,17.61
2023-10-13T19:00:24.173Z,17.61
2023-10-13T19:02:30.610Z,17.61
2023-10-13T19:04:37.001Z,17.65
2023-10-13T19:06:47.843Z,17.64
2023-10-13T19:08:53.153Z,17.62
2023-10-13T19:10:58.548Z,17.64
2023-10-13T19:13:05.562Z,17.63
2023-10-13T19:15:14.026Z,17.61
2023-10-13T19:17:23.006Z,17.62
2023-10-13T19:19:27.961Z,17.70
2023-10-13T19:21:37.863Z,17.70
2023-10-13T19:23:47.747Z,17.73
2023-10-13T19:25:54.038Z,17.69
2023-10-13T19:27:59.090Z,17.71
2023-10-13T19:30:07.574Z,17.70
2023-10-13T19:32:12.591Z,17.70
2023-10-13T19:34:19.073Z,17.63
2023-10-13T19:36:24.942Z,17.68
2023-10-13T19:38:31.407Z,17.66
2023-10-13T19:40:42.885Z,17.63
2023-10-13T19:42:47.945Z,17.55
2023-10-13T19:44:55.543Z,17.59
2023-10-13T19:47:01.647Z,17.59
2023-10-13T19:49:19.017Z,17.54
2023-10-13T19:51:27.677Z,17.52
2023-10-13T19:53:33.040Z,17.49
2023-10-13T19:55:55.706Z,17.42
2023-10-13T19:58:00.036Z,17.38
2023-10-13T20:00:12.306Z,17.28
2023-10-13T20:02:24.142Z,17.17
2023-10-13T20:04:30.830Z,17.15
2023-10-13T20:06:41.586Z,17.07
2023-10-13T20:08:50.708Z,17.03
2023-10-13T20:11:01.859Z,17.02
2023-10-13T20:13:10.068Z,16.97
2023-10-13T20:15:22.655Z,16.99
2023-10-13T20:17:33.380Z,16.93
2023-10-13T20:19:39.283Z,16.91
2023-10-13T20:21:45.914Z,16.91
2023-10-13T20:23:50.967Z,16.82
2023-10-13T20:25:59.303Z,16.87
2023-10-13T20:28:02.255Z,16.85
2023-10-13T20:30:10.072Z,16.85
2023-10-13T20:32:17.874Z,16.79
2023-10-13T20:34:24.865Z,16.81
2023-10-13T20:36:30.101Z,16.79
2023-10-13T20:38:36.275Z,16.81
2023-10-13T20:40:42.582Z,16.80
2023-10-13T20:42:51.638Z,16.85
2023-10-13T20:44:58.462Z,16.88
2023-10-13T20:47:08.046Z,16.92
2023-10-13T20:49:13.803Z,16.99
2023-10-13T20:51:20.191Z,16.95
2023-10-13T20:53:22.513Z,16.94
2023-10-13T20:55:28.091Z,16.99
2023-10-13T20:57:32.595Z,16.98
2023-10-13T20:59:49.741Z,16.92
2023-10-13T21:01:59.342Z,16.92
2023-10-13T21:04:04.873Z,16.93
2023-10-13T21:06:11.891Z,16.93
2023-10-13T21:08:17.498Z,16.95
2023-10-13T21:10:20.357Z,16.94
2023-10-13T21:12:25.412Z,16.86
2023-10-13T21:14:30.565Z,16.80
2023-10-13T21:16:38.533Z,16.71
2023-10-13T21:18:49.225Z,16.61
2023-10-13T21:20:56.832Z,16.54
2023-10-13T21:22:59.700Z,16.50
2023-10-13T21:25:05.324Z,16.43
2023-10-13T21:27:13.267Z,15.77
2023-10-13T21:29:19.075Z,15.44
2023-10-13T21:31:21.965Z,14.70
2023-10-13T21:33:30.005Z,14.48
2023-10-13T21:35:38.329Z,14.38
2023-10-13T21:37:43.951Z,14.26
2023-10-13T21:39:50.767Z,14.15
2023-10-13T21:41:57.419Z,14.16
2023-10-13T21:44:04.547Z,14.11
2023-10-13T21:46:10.399Z,14.05
2023-10-13T21:48:15.486Z,14.09
2023-10-13T21:50:27.757Z,13.97
2023-10-13T21:52:32.909Z,13.91
2023-10-13T21:54:37.945Z,13.91
2023-10-13T21:56:42.983Z,13.76
2023-10-13T21:58:51.421Z,13.71
2023-10-13T22:01:00.761Z,13.64
2023-10-13T22:03:03.103Z,13.59
2023-10-13T22:05:12.410Z,13.59
2023-10-13T22:07:22.420Z,13.57
2023-10-13T22:09:27.353Z,13.54
2023-10-13T22:11:29.661Z,13.52
2023-10-13T22:13:37.657Z,13.52
2023-10-13T22:15:47.324Z,13.48
2023-10-13T22:17:52.603Z,13.50
2023-10-13T22:20:00.254Z,13.50
2023-10-13T22:22:06.493Z,13.50
2023-10-13T22:24:16.724Z,13.49
2023-10-13T22:26:21.797Z,13.52
2023-10-13T22:28:26.877Z,13.54
2023-10-13T22:30:35.769Z,13.55
2023-10-13T22:32:42.488Z,13.60
2023-10-13T22:34:47.670Z,13.58
2023-10-13T22:37:05.505Z,13.55
2023-10-13T22:39:17.136Z,13.56
2023-10-13T22:41:23.579Z,13.61
2023-10-13T22:43:30.633Z,13.57
2023-10-13T22:45:35.573Z,13.64
2023-10-13T22:47:43.628Z,13.69
2023-10-13T22:49:51.365Z,13.72
2023-10-13T22:51:56.304Z,13.78
2023-10-13T22:54:01.305Z,13.76
2023-10-13T22:56:09.004Z,13.78
2023-10-13T22:58:14.889Z,13.79
2023-10-13T23:00:20.779Z,13.75
2023-10-13T23:02:27.999Z,13.71
2023-10-13T23:04:34.368Z,13.77
2023-10-13T23:06:43.493Z,13.80
2023-10-13T23:08:50.708Z,13.80
2023-10-13T23:10:55.776Z,13.71
2023-10-13T23:13:01.198Z,13.73
2023-10-13T23:15:10.503Z,13.78
2023-10-13T23:17:16.392Z,13.70
2023-10-13T23:19:24.555Z,13.70
2023-10-13T23:21:27.360Z,13.72
2023-10-13T23:23:32.521Z,13.64
2023-10-13T23:25:38.717Z,13.54
2023-10-13T23:27:44.963Z,13.42
2023-10-13T23:29:52.580Z,13.35
2023-10-13T23:32:00.670Z,13.42
2023-10-13T23:34:06.870Z,13.31
2023-10-13T23:36:12.564Z,13.23
2023-10-13T23:38:29.782Z,13.11
2023-10-13T23:40:45.619Z,13.06
2023-10-13T23:42:58.398Z,13.02
2023-10-13T23:45:19.808Z,13.03
2023-10-13T23:47:29.347Z,12.97
2023-10-13T23:49:37.119Z,12.98
2023-10-13T23:52:11.070Z,12.99
2023-10-13T23:54:27.015Z,12.94
2023-10-13T23:56:33.008Z,12.90
2023-10-13T23:58:36.900Z,12.85
